Pskovavia AN24 at Moscow on Jan 22nd 2014, landed off runway

Last Update: January 22, 2014 / 19:21:52 GMT/Zulu time

Bookmark this article
Incident Facts

Date of incident
Jan 22, 2014

Classification
Incident

Airline
Pskovavia

Flight number
PSW-1935

Departure
Pskov, Russia

Aircraft Registration
RA-46473

Aircraft Type
Antonov An-24

ICAO Type Designator
AN24

Airport ICAO Code
UUDD

A Pskovavia Antonov AN-24, registration RA-46473 performing flight PSW-1935 from Pskov to Moscow Domodedovo (Russia) with 16 passengers and 4 crew, was on approach to Domodedovo's runway 14R at 08:19L (04:19Z) in poor visibility due to fog, but touched down about 230 meters/750 feet to the right of the runway on soft frozen ground. The aircraft rolled out and came to a stop outside the runway strip (runway protected zone) without further incident. No injuries and no damage occurred.

The runway did not need to be closed because the AN24 stopped outside the runway strip, takeoffs and landings continued after runways were switched to 32.

The airport confirmed the aircraft landed outside the runway, the passengers were bussed to the terminal, operations of the airport were not affected. Runway conditions (braking action) and weather conditions were normal.

Russia's Ministry of Transport stated the pilot was very experienced, the aircraft was technically sound, however, nobody is immune to errors.

Metars:
UUDD 220700Z 05002MPS 030V130 4200 -SN BR BKN002 OVC100 M21/M24 Q1025 32420195 82420195 TEMPO 1000
UUDD 220630Z 09002MPS 060V120 3100 -SN BR BKN002 OVC100 M21/M24 Q1025 32420195 82420195 TEMPO 0300 FZFG
UUDD 220600Z 10001MPS 1300 -SN BR BKN003 OVC100 M21/M24 Q1025 REFZFG 32420195 82420195 TEMPO 0300 FZFG
UUDD 220530Z 00000MPS 1000 R32R/1000 -SN BR BKN003 OVC100 M21/M24 Q1025 82420195 TEMPO 0300 FZFG
UUDD 220500Z 00000MPS 0700 R32R/0800VP1500N FZFG VV002 M21/M24 Q1025 82420195 TEMPO 0300
UUDD 220430Z 00000MPS 0300 R32R/0600V0900U FZFG VV002 M21/M24 Q1025 82420195 NOSIG RMK QBB060
UUDD 220400Z 07002MPS 0150 R14R/0500N R14L/P1500 FZFG VV001 M22/M24 Q1025 64420195 14420195 NOSIG RMK QBB050
UUDD 220330Z 06001MPS 0300 R14R/0700V1400D R14L/1000N FZFG VV001 M22/M25 Q1025 64420195 14420195 NOSIG RMK QBB050
UUDD 220300Z 16001MPS 0100 R14R/0350N R14L/0400VP1500U FZFG VV001 M23/M26 Q1025 64420195 14420195 NOSIG RMK QBB050
UUDD 220230Z 17001MPS 0100 R14R/0400N R14L/0400VP1500D FZFG VV001 M24/M26 Q1025 64420195 14420195 NOSIG RMK QBB050
UUDD 220200Z 00000MPS 5000 BR OVC001 M24/M27 Q1026 64420195 TEMPO 0400 FZFG BKN001 RMK QBB050
UUDD 220130Z 00000MPS 8000 BKN001 M25/M28 Q1026 64420195 TEMPO 1000 BR BKN001 RMK QBB050
UUDD 220100Z 00000MPS 8000 BKN001 M24/M27 Q1026 64420195 TEMPO 1000 BR SCT001 RMK QBB050
Incident Facts

Date of incident
Jan 22, 2014

Classification
Incident

Airline
Pskovavia

Flight number
PSW-1935

Departure
Pskov, Russia

Aircraft Registration
RA-46473

Aircraft Type
Antonov An-24

ICAO Type Designator
AN24

Airport ICAO Code
UUDD

This article is published under license from Avherald.com. © of text by Avherald.com.
Article source

You can read 4 more free articles without a subscription.

Subscribe now and continue reading without any limits!

Are you a subscriber?
Login
Subscribe

Read unlimited articles and receive our daily update briefing. Gain better insights into what is happening in commercial aviation safety.

Free newsletter

Want to know more and stay ahead? Get our free weekly newsletter and join 4941 existing subscribers.

By subscribing, you accept our terms and conditions and confirm that you've read our privacy policy.

Send tip

Support AeroInside by sending a small tip amount.

Related articles

Newest articles

Subscribe today

Are you researching aviation incidents? Get access to AeroInside Insights, unlimited read access and receive the daily newsletter.

Pick your plan and subscribe

Partner

Blockaviation logo

A new way to document and demonstrate airworthiness compliance and aircraft value. Find out more.

Virtual Speech logo

ELITE Simulation Solutions is a leading global provider of Flight Simulation Training Devices, IFR training software as well as flight controls and related services. Find out more.

Get updates

Never miss an article from AeroInside. Subscribe to our free weekly newsletter and join 4941 existing subscribers.

By subscribing, you accept our terms and conditions and that you've read our privacy policy.

AeroInside Blog
Popular aircraft
Airbus A320
Boeing 737-800
Boeing 737-800 MAX
Popular airlines
American Airlines
United
Delta
Air Canada
Lufthansa
British Airways